createdAt,value
2018-12-22T00:00:12.096Z,5.95
2018-12-22T00:02:38.377Z,9.07
2018-12-22T00:05:04.774Z,7.43
2018-12-22T00:07:30.908Z,6.70
2018-12-22T00:09:57.016Z,10.30
2018-12-22T00:12:23.213Z,8.97
2018-12-22T00:14:49.385Z,3.85
2018-12-22T00:17:15.526Z,6.80
2018-12-22T00:19:41.633Z,9.80
2018-12-22T00:22:07.842Z,6.28
2018-12-22T00:24:33.939Z,3.13
2018-12-22T00:27:00.058Z,4.17
2018-12-22T00:29:26.296Z,5.23
2018-12-22T00:31:52.664Z,6.40
2018-12-22T00:34:18.841Z,8.37
2018-12-22T00:36:45.006Z,2.27
2018-12-22T00:39:11.074Z,3.20
2018-12-22T00:41:37.264Z,7.43
2018-12-22T00:44:03.511Z,5.40
2018-12-22T00:46:29.736Z,8.17
2018-12-22T00:48:55.853Z,6.97
2018-12-22T00:51:21.964Z,2.25
2018-12-22T00:53:48.196Z,2.57
2018-12-22T00:56:14.308Z,6.80
2018-12-22T00:58:40.542Z,4.17
2018-12-22T01:01:06.760Z,1.90
2018-12-22T01:03:32.944Z,4.20
2018-12-22T01:05:59.061Z,9.68
2018-12-22T01:08:25.298Z,12.93
2018-12-22T01:10:58.261Z,4.20
2018-12-22T01:13:24.358Z,4.40
2018-12-22T01:15:50.535Z,7.57
2018-12-22T01:18:16.649Z,2.42
2018-12-22T01:20:42.867Z,4.00
2018-12-22T01:23:08.974Z,7.90
2018-12-22T01:25:35.233Z,5.22
2018-12-22T01:28:01.475Z,7.33
2018-12-22T01:30:27.757Z,6.30
2018-12-22T01:32:53.851Z,3.77
2018-12-22T01:35:19.950Z,9.50
2018-12-22T01:37:46.314Z,9.80
2018-12-22T01:40:12.418Z,6.33
2018-12-22T01:42:38.732Z,15.53
2018-12-22T01:45:05.545Z,9.80
2018-12-22T01:47:31.645Z,8.47
2018-12-22T01:49:57.828Z,5.20
2018-12-22T01:52:23.932Z,6.13
2018-12-22T01:54:50.135Z,5.40
2018-12-22T01:57:16.382Z,5.80
2018-12-22T01:59:42.595Z,6.27
2018-12-22T02:02:08.877Z,11.13
2018-12-22T02:04:35.050Z,8.13
2018-12-22T02:07:01.229Z,16.50
2018-12-22T02:09:27.327Z,11.03
2018-12-22T02:11:53.429Z,14.20
2018-12-22T02:14:19.589Z,11.43
2018-12-22T02:16:46.028Z,13.73
2018-12-22T02:19:12.172Z,9.07
2018-12-22T02:21:38.333Z,14.50
2018-12-22T02:24:04.595Z,10.60
2018-12-22T02:26:30.775Z,7.70
2018-12-22T02:28:57.065Z,11.00
2018-12-22T02:31:23.453Z,7.90
2018-12-22T02:33:49.668Z,10.27
2018-12-22T02:36:15.984Z,16.77
2018-12-22T02:38:42.088Z,12.50
2018-12-22T02:41:08.297Z,10.43
2018-12-22T02:43:34.503Z,11.93
2018-12-22T02:46:01.033Z,14.50
2018-12-22T02:48:27.225Z,17.13
2018-12-22T02:50:53.291Z,12.47
2018-12-22T02:53:19.386Z,9.23
2018-12-22T02:55:45.668Z,11.40
2018-12-22T02:58:11.764Z,8.43
2018-12-22T03:00:38.071Z,11.78
2018-12-22T03:03:04.356Z,11.47
2018-12-22T03:05:30.536Z,16.37
2018-12-22T03:07:56.744Z,10.25
2018-12-22T03:10:22.958Z,12.17
2018-12-22T03:12:49.084Z,9.03
2018-12-22T03:15:15.361Z,6.62
2018-12-22T03:17:41.481Z,13.70
2018-12-22T03:20:07.725Z,12.87
2018-12-22T03:22:34.001Z,15.68
2018-12-22T03:25:00.152Z,16.30
2018-12-22T03:27:26.381Z,19.63
2018-12-22T03:29:52.726Z,17.12
2018-12-22T03:32:19.050Z,17.57
2018-12-22T03:34:45.306Z,10.48
2018-12-22T03:37:11.623Z,14.90
2018-12-22T03:39:37.940Z,20.60
2018-12-22T03:42:04.383Z,17.73
2018-12-22T03:44:30.590Z,17.37
2018-12-22T03:47:03.879Z,14.57
2018-12-22T03:49:36.874Z,16.03
2018-12-22T03:52:03.171Z,20.30
2018-12-22T03:54:29.410Z,14.13
2018-12-22T03:56:56.253Z,17.20
2018-12-22T03:59:24.919Z,13.87
2018-12-22T04:01:51.280Z,19.57
2018-12-22T04:04:17.386Z,20.27
2018-12-22T04:06:43.565Z,26.80
2018-12-22T04:09:10.366Z,22.33
2018-12-22T04:11:36.559Z,16.47
2018-12-22T04:14:02.914Z,12.53
2018-12-22T04:16:29.022Z,12.17
2018-12-22T04:18:55.206Z,19.77
2018-12-22T04:21:21.416Z,18.15
2018-12-22T04:23:47.608Z,13.30
2018-12-22T04:26:13.853Z,19.63
2018-12-22T04:28:40.056Z,18.98
2018-12-22T04:31:06.249Z,26.03
2018-12-22T04:33:32.561Z,19.53
2018-12-22T04:35:58.683Z,25.67
2018-12-22T04:38:24.804Z,25.10
2018-12-22T04:40:50.976Z,19.37
2018-12-22T04:43:17.087Z,22.32
2018-12-22T04:45:43.237Z,25.93
2018-12-22T04:48:09.310Z,22.30
2018-12-22T04:50:35.438Z,24.93
2018-12-22T04:53:01.501Z,26.23
2018-12-22T04:55:27.679Z,16.30
2018-12-22T04:57:53.772Z,25.53
2018-12-22T05:00:19.876Z,17.30
2018-12-22T05:02:45.962Z,17.17
2018-12-22T05:05:12.153Z,12.90
2018-12-22T05:07:38.281Z,26.00
2018-12-22T05:10:06.557Z,20.32
2018-12-22T05:12:32.627Z,17.43
2018-12-22T05:14:58.946Z,31.83
2018-12-22T05:17:25.137Z,15.30
2018-12-22T05:19:51.442Z,15.43
2018-12-22T05:22:17.676Z,21.50
2018-12-22T05:24:43.932Z,14.40
2018-12-22T05:27:10.061Z,16.70
2018-12-22T05:29:36.258Z,20.83
2018-12-22T05:32:02.557Z,16.93
2018-12-22T05:34:28.866Z,22.93
2018-12-22T05:36:54.986Z,23.37
2018-12-22T05:39:21.101Z,21.57
2018-12-22T05:41:47.333Z,21.77
2018-12-22T05:44:13.556Z,18.87
2018-12-22T05:46:39.861Z,13.00
2018-12-22T05:49:06.045Z,13.33
2018-12-22T05:51:32.157Z,16.07
2018-12-22T05:53:58.265Z,16.30
2018-12-22T05:56:24.493Z,12.80
2018-12-22T05:58:50.689Z,22.57
2018-12-22T06:01:16.912Z,10.55
2018-12-22T06:03:43.128Z,20.27
2018-12-22T06:06:09.426Z,19.63
2018-12-22T06:08:35.556Z,16.80
2018-12-22T06:11:01.805Z,14.63
2018-12-22T06:13:35.048Z,8.77
2018-12-22T06:16:01.388Z,9.27
2018-12-22T06:18:27.610Z,16.77
2018-12-22T06:20:53.845Z,12.80
2018-12-22T06:23:20.067Z,22.67
2018-12-22T06:25:46.523Z,19.37
2018-12-22T06:28:12.709Z,14.93
2018-12-22T06:30:38.943Z,18.23
2018-12-22T06:33:05.395Z,17.23
2018-12-22T06:35:31.490Z,11.60
2018-12-22T06:37:57.601Z,14.83
2018-12-22T06:40:23.754Z,14.03
2018-12-22T06:42:50.004Z,12.43
2018-12-22T06:45:16.091Z,13.57
2018-12-22T06:47:42.209Z,11.73
2018-12-22T06:50:08.394Z,15.03
2018-12-22T06:52:34.847Z,10.00
2018-12-22T06:55:01.044Z,15.10
2018-12-22T06:57:27.184Z,13.43
2018-12-22T06:59:53.293Z,9.90
2018-12-22T07:02:19.558Z,10.70
2018-12-22T07:04:45.677Z,12.43
2018-12-22T07:07:11.906Z,16.10
2018-12-22T07:09:38.033Z,10.60
2018-12-22T07:12:04.253Z,22.02
2018-12-22T07:14:30.662Z,20.03
2018-12-22T07:16:56.787Z,15.25
2018-12-22T07:19:23.102Z,13.57
2018-12-22T07:21:49.201Z,13.00
2018-12-22T07:24:15.392Z,14.70
2018-12-22T07:26:41.667Z,16.52
2018-12-22T07:29:07.913Z,13.37
2018-12-22T07:31:34.893Z,12.90
2018-12-22T07:34:01.966Z,19.77
2018-12-22T07:36:28.072Z,18.80
2018-12-22T07:38:56.261Z,15.37
2018-12-22T07:41:23.197Z,13.62
2018-12-22T07:43:56.501Z,13.25
2018-12-22T07:46:22.705Z,7.60
2018-12-22T07:48:48.906Z,13.33
2018-12-22T07:51:15.922Z,17.65
2018-12-22T07:53:42.029Z,21.93
2018-12-22T07:56:08.808Z,9.07
2018-12-22T07:58:35.060Z,16.37
2018-12-22T08:01:02.242Z,20.87
2018-12-22T08:03:28.417Z,21.03
2018-12-22T08:05:55.518Z,11.25
2018-12-22T08:08:23.643Z,20.10
2018-12-22T08:10:50.578Z,20.30
2018-12-22T08:13:16.698Z,12.30
2018-12-22T08:15:43.165Z,15.33
2018-12-22T08:18:10.108Z,19.30
2018-12-22T08:20:37.089Z,10.80
2018-12-22T08:23:03.282Z,18.37
2018-12-22T08:25:30.401Z,5.50
2018-12-22T08:27:57.202Z,16.50
2018-12-22T08:30:24.434Z,14.50
2018-12-22T08:32:52.127Z,16.27
2018-12-22T08:35:18.353Z,9.97
2018-12-22T08:37:44.647Z,17.70
2018-12-22T08:40:10.874Z,15.77
2018-12-22T08:42:37.217Z,12.00
2018-12-22T08:45:06.402Z,23.73
2018-12-22T08:47:32.590Z,16.93
2018-12-22T08:49:58.697Z,20.03
2018-12-22T08:52:25.677Z,14.45
2018-12-22T08:54:51.770Z,22.07
2018-12-22T08:57:17.998Z,12.97
2018-12-22T08:59:44.129Z,13.35
2018-12-22T09:02:11.285Z,22.67
2018-12-22T09:04:37.501Z,10.20
2018-12-22T09:07:03.613Z,18.00
2018-12-22T09:09:29.685Z,16.97
2018-12-22T09:11:55.981Z,20.77
2018-12-22T09:14:22.733Z,16.20
2018-12-22T09:16:49.010Z,14.60
2018-12-22T09:19:15.432Z,11.70
2018-12-22T09:21:41.659Z,12.47
2018-12-22T09:24:08.780Z,17.13
2018-12-22T09:26:34.873Z,10.87
2018-12-22T09:29:02.178Z,11.73
2018-12-22T09:31:28.943Z,16.50
2018-12-22T09:33:55.882Z,14.20
2018-12-22T09:36:23.217Z,19.47
2018-12-22T09:38:49.385Z,17.07
2018-12-22T09:41:15.586Z,8.80
2018-12-22T09:43:41.777Z,15.60
2018-12-22T09:46:07.954Z,21.77
2018-12-22T09:48:41.315Z,14.73
2018-12-22T09:51:08.386Z,21.53
2018-12-22T09:53:34.599Z,11.83
2018-12-22T09:56:00.938Z,12.65
2018-12-22T09:58:27.150Z,11.53
2018-12-22T10:00:54.212Z,14.10
2018-12-22T10:03:20.444Z,20.17
2018-12-22T10:05:49.201Z,16.50
2018-12-22T10:08:15.533Z,15.57
2018-12-22T10:10:41.817Z,23.13
2018-12-22T10:13:08.067Z,21.15
2018-12-22T10:15:37.165Z,15.10
2018-12-22T10:18:03.401Z,21.73
2018-12-22T10:20:29.700Z,14.97
2018-12-22T10:22:56.733Z,15.17
2018-12-22T10:25:23.914Z,18.97
2018-12-22T10:27:51.269Z,25.30
2018-12-22T10:30:17.878Z,19.55
2018-12-22T10:32:44.096Z,24.70
2018-12-22T10:35:16.804Z,13.40
2018-12-22T10:37:43.823Z,16.57
2018-12-22T10:40:10.051Z,12.40
2018-12-22T10:42:36.263Z,14.53
2018-12-22T10:45:05.654Z,10.10
2018-12-22T10:47:31.741Z,10.03
2018-12-22T10:49:57.857Z,14.57
2018-12-22T10:52:24.046Z,6.28
2018-12-22T10:54:50.144Z,10.30
2018-12-22T10:57:16.262Z,8.60
2018-12-22T10:59:43.614Z,3.60
2018-12-22T11:02:09.813Z,7.20
2018-12-22T11:04:36.051Z,4.90
2018-12-22T11:07:07.273Z,13.93
2018-12-22T11:09:33.422Z,4.20
2018-12-22T11:11:59.577Z,5.40
2018-12-22T11:14:25.729Z,5.92
2018-12-22T11:16:51.888Z,6.10
2018-12-22T11:19:18.007Z,5.27
2018-12-22T11:21:44.106Z,5.75
2018-12-22T11:24:10.391Z,5.27
2018-12-22T11:26:36.612Z,2.23
2018-12-22T11:29:03.102Z,3.98
2018-12-22T11:31:34.993Z,7.80
2018-12-22T11:33:57.432Z,2.83
2018-12-22T11:36:23.628Z,3.50
2018-12-22T11:38:49.757Z,3.30
2018-12-22T11:41:16.224Z,2.60
2018-12-22T11:43:42.313Z,2.25
2018-12-22T11:46:08.442Z,3.43
2018-12-22T11:48:34.849Z,3.53
2018-12-22T11:51:00.974Z,2.77
2018-12-22T11:53:27.083Z,1.43
2018-12-22T11:55:53.182Z,1.30
2018-12-22T11:58:19.278Z,2.83
2018-12-22T12:00:45.540Z,4.30
2018-12-22T12:03:11.617Z,2.50
2018-12-22T12:05:37.802Z,3.17
2018-12-22T12:08:06.935Z,3.25
2018-12-22T12:10:33.129Z,3.07
2018-12-22T12:12:59.242Z,3.27
2018-12-22T12:15:26.816Z,3.70
2018-12-22T12:18:16.573Z,1.80
2018-12-22T12:20:43.424Z,8.30
2018-12-22T12:23:10.544Z,4.97
2018-12-22T12:25:37.606Z,7.40
2018-12-22T12:28:03.987Z,3.83
2018-12-22T12:30:30.118Z,1.90
2018-12-22T12:32:56.186Z,5.43
2018-12-22T12:35:22.517Z,1.92
2018-12-22T12:37:48.705Z,2.20
2018-12-22T12:40:14.871Z,1.70
2018-12-22T12:42:41.090Z,1.42
2018-12-22T12:45:12.542Z,1.17
2018-12-22T12:47:43.653Z,1.10
2018-12-22T12:50:15.696Z,2.63
2018-12-22T12:52:41.942Z,1.30
2018-12-22T12:55:11.111Z,1.53
2018-12-22T12:57:37.305Z,1.87
2018-12-22T13:00:20.252Z,1.17
2018-12-22T13:02:46.421Z,0.70
2018-12-22T13:05:13.220Z,1.60
2018-12-22T13:07:39.450Z,0.83
2018-12-22T13:10:13.438Z,0.97
2018-12-22T13:13:02.853Z,0.90
2018-12-22T13:15:29.013Z,1.43
2018-12-22T13:17:55.106Z,0.70
2018-12-22T13:20:23.280Z,1.35
2018-12-22T13:22:49.447Z,1.23
2018-12-22T13:25:15.681Z,0.70
2018-12-22T13:27:41.923Z,2.00
2018-12-22T13:30:11.391Z,0.63
2018-12-22T13:32:38.622Z,2.80
2018-12-22T13:35:09.882Z,1.67
2018-12-22T13:37:36.293Z,1.07
2018-12-22T13:40:17.659Z,1.10
2018-12-22T13:42:43.901Z,0.77
2018-12-22T13:45:10.374Z,0.70
2018-12-22T13:47:37.682Z,0.60
2018-12-22T13:50:10.786Z,1.17
2018-12-22T13:52:37.754Z,1.33
2018-12-22T13:55:08.520Z,1.37
2018-12-22T13:57:38.824Z,2.47
2018-12-22T14:00:24.234Z,1.00
2018-12-22T14:02:50.411Z,0.77
2018-12-22T14:05:23.165Z,1.33
2018-12-22T14:07:49.373Z,1.67
2018-12-22T14:10:16.260Z,1.07
2018-12-22T14:12:42.371Z,1.03
2018-12-22T14:15:14.702Z,0.93
2018-12-22T14:17:45.810Z,1.00
2018-12-22T14:20:12.782Z,0.80
2018-12-22T14:22:39.021Z,2.43
2018-12-22T14:25:11.332Z,2.85
2018-12-22T14:27:38.297Z,1.50
2018-12-22T14:30:10.809Z,2.63
2018-12-22T14:32:36.940Z,1.63
2018-12-22T14:35:14.060Z,2.87
2018-12-22T14:37:40.370Z,1.30
2018-12-22T14:40:11.187Z,4.17
2018-12-22T14:42:37.657Z,3.83
2018-12-22T14:45:10.143Z,1.07
2018-12-22T14:47:36.491Z,2.27
2018-12-22T14:50:07.784Z,2.75
2018-12-22T14:52:33.915Z,2.10
2018-12-22T14:55:02.248Z,2.67
2018-12-22T14:57:43.889Z,1.35
2018-12-22T15:00:14.730Z,1.90
2018-12-22T15:02:41.057Z,0.80
2018-12-22T15:05:07.306Z,1.42
2018-12-22T15:07:33.429Z,1.77
2018-12-22T15:10:00.475Z,1.10
2018-12-22T15:12:27.612Z,1.57
2018-12-22T15:14:53.853Z,0.70
2018-12-22T15:17:20.004Z,1.03
2018-12-22T15:19:47.713Z,2.30
2018-12-22T15:22:14.039Z,1.10
2018-12-22T15:24:40.413Z,1.33
2018-12-22T15:27:06.548Z,1.00
2018-12-22T15:32:11.764Z,0.90
2018-12-22T15:34:38.124Z,1.92
2018-12-22T15:37:04.449Z,0.83
2018-12-22T15:39:31.350Z,1.00
2018-12-22T15:41:57.501Z,0.97
2018-12-22T15:44:23.614Z,1.20
2018-12-22T15:46:49.831Z,2.17
2018-12-22T15:49:17.603Z,1.03
2018-12-22T15:51:44.057Z,0.97
2018-12-22T15:54:14.068Z,1.20
2018-12-22T15:56:40.271Z,1.00
2018-12-22T15:59:06.478Z,1.03
2018-12-22T16:01:32.765Z,0.67
2018-12-22T16:03:58.965Z,1.07
2018-12-22T16:06:25.391Z,0.70
2018-12-22T16:08:51.788Z,0.80
2018-12-22T16:11:20.305Z,0.97
2018-12-22T16:13:46.606Z,0.90
2018-12-22T16:16:13.484Z,0.95
2018-12-22T16:18:40.265Z,1.32
2018-12-22T16:21:06.594Z,1.10
2018-12-22T16:23:33.146Z,1.90
2018-12-22T16:26:07.238Z,1.40
2018-12-22T16:28:33.793Z,1.77
2018-12-22T16:31:00.041Z,0.90
2018-12-22T16:33:27.830Z,0.80
2018-12-22T16:35:54.183Z,1.43
2018-12-22T16:38:20.515Z,2.17
2018-12-22T16:40:46.971Z,1.30
2018-12-22T16:43:13.326Z,2.20
2018-12-22T16:45:41.885Z,2.33
2018-12-22T16:48:08.199Z,2.00
2018-12-22T16:50:36.589Z,2.27
2018-12-22T16:53:02.816Z,3.00
2018-12-22T16:55:31.326Z,2.27
2018-12-22T16:58:08.235Z,3.53
2018-12-22T17:03:38.831Z,3.07
2018-12-22T17:06:07.757Z,2.92
2018-12-22T17:08:34.192Z,3.93
2018-12-22T17:11:00.548Z,3.33
2018-12-22T17:13:26.742Z,2.93
2018-12-22T17:15:54.854Z,4.00
2018-12-22T17:18:22.266Z,5.77
2018-12-22T17:20:55.623Z,5.05
2018-12-22T17:23:35.591Z,3.27
2018-12-22T17:26:02.026Z,3.97
2018-12-22T17:28:30.022Z,4.45
2018-12-22T17:30:56.387Z,4.50
2018-12-22T17:33:22.796Z,3.97
2018-12-22T17:35:49.061Z,4.77
2018-12-22T17:38:15.280Z,3.70
2018-12-22T17:40:41.481Z,3.77
2018-12-22T17:43:08.199Z,2.90
2018-12-22T17:45:34.384Z,3.33
2018-12-22T17:48:02.663Z,3.20
2018-12-22T17:50:28.847Z,4.40
2018-12-22T17:52:55.007Z,3.87
2018-12-22T17:55:21.238Z,3.50
2018-12-22T17:57:47.535Z,3.00
2018-12-22T18:00:14.438Z,3.13
2018-12-22T18:02:45.509Z,3.12
2018-12-22T18:05:11.872Z,4.07
2018-12-22T18:07:38.132Z,3.45
2018-12-22T18:10:10.006Z,4.07
2018-12-22T18:12:36.387Z,5.20
2018-12-22T18:15:17.601Z,4.30
2018-12-22T18:17:43.834Z,3.80
2018-12-22T18:20:10.145Z,4.33
2018-12-22T18:22:36.458Z,5.03
2018-12-22T18:25:08.881Z,4.20
2018-12-22T18:27:35.092Z,3.63
2018-12-22T18:30:01.293Z,4.67
2018-12-22T18:32:27.492Z,4.55
2018-12-22T18:34:53.829Z,5.03
2018-12-22T18:37:20.036Z,4.90
2018-12-22T18:39:46.148Z,4.97
2018-12-22T18:42:12.782Z,4.50
2018-12-22T18:44:40.060Z,5.20
2018-12-22T18:47:08.090Z,5.93
2018-12-22T18:49:35.238Z,5.43
2018-12-22T18:52:01.364Z,5.30
2018-12-22T18:54:28.531Z,5.40
2018-12-22T18:56:54.742Z,5.50
2018-12-22T18:59:21.363Z,8.33
2018-12-22T19:01:47.803Z,5.30
2018-12-22T19:04:14.130Z,4.85
2018-12-22T19:06:42.352Z,7.13
2018-12-22T19:09:12.972Z,3.70
2018-12-22T19:11:40.193Z,2.93
2018-12-22T19:14:07.274Z,4.60
2018-12-22T19:16:33.395Z,1.50
2018-12-22T19:19:00.147Z,6.73
2018-12-22T19:21:26.350Z,3.03
2018-12-22T19:23:53.307Z,0.90
2018-12-22T19:26:20.349Z,2.08
2018-12-22T19:28:46.698Z,2.13
2018-12-22T19:31:12.881Z,1.77
2018-12-22T19:33:38.971Z,1.40
2018-12-22T19:36:06.080Z,2.27
2018-12-22T19:38:32.361Z,3.30
2018-12-22T19:40:58.716Z,3.92
2018-12-22T19:43:24.816Z,5.43
2018-12-22T19:45:51.144Z,3.63
2018-12-22T19:48:17.250Z,4.40
2018-12-22T19:50:43.515Z,4.20
2018-12-22T19:53:09.742Z,4.10
2018-12-22T19:55:35.935Z,3.50
2018-12-22T19:58:02.145Z,5.00
2018-12-22T20:00:28.610Z,5.70
2018-12-22T20:02:54.912Z,3.60
2018-12-22T20:05:21.142Z,6.83
2018-12-22T20:07:47.560Z,7.10
2018-12-22T20:10:13.804Z,5.30
2018-12-22T20:12:40.127Z,5.33
2018-12-22T20:15:06.587Z,6.67
2018-12-22T20:17:32.872Z,4.60
2018-12-22T20:19:59.162Z,4.23
2018-12-22T20:22:25.362Z,4.03
2018-12-22T20:24:51.501Z,6.93
2018-12-22T20:27:17.961Z,5.20
2018-12-22T20:29:44.366Z,6.00
2018-12-22T20:32:11.202Z,7.70
2018-12-22T20:34:37.492Z,5.97
2018-12-22T20:37:03.652Z,7.03
2018-12-22T20:39:29.865Z,6.30
2018-12-22T20:41:56.086Z,6.63
2018-12-22T20:44:22.177Z,3.47
2018-12-22T20:46:48.392Z,4.00
2018-12-22T20:49:14.490Z,3.93
2018-12-22T20:51:40.608Z,2.50
2018-12-22T20:54:06.866Z,5.75
2018-12-22T20:56:32.941Z,2.20
2018-12-22T20:58:59.167Z,2.80
2018-12-22T21:01:25.394Z,5.08
2018-12-22T21:03:51.778Z,3.47
2018-12-22T21:06:21.391Z,2.02
2018-12-22T21:08:47.714Z,8.23
2018-12-22T21:11:14.018Z,3.62
2018-12-22T21:13:40.356Z,1.73
2018-12-22T21:16:06.517Z,2.33
2018-12-22T21:18:32.849Z,2.17
2018-12-22T21:21:00.526Z,2.00
2018-12-22T21:23:27.271Z,3.67
2018-12-22T21:25:53.467Z,2.85
2018-12-22T21:28:19.737Z,3.70
2018-12-22T21:30:45.926Z,4.07
2018-12-22T21:33:12.088Z,4.10
2018-12-22T21:35:38.298Z,6.00
2018-12-22T21:38:04.654Z,4.83
2018-12-22T21:40:30.902Z,3.92
2018-12-22T21:42:57.043Z,4.40
2018-12-22T21:45:23.302Z,3.67
2018-12-22T21:47:49.632Z,7.20
2018-12-22T21:50:22.967Z,3.80
2018-12-22T21:52:49.541Z,5.80
2018-12-22T21:55:15.872Z,6.75
2018-12-22T21:57:42.151Z,5.53
2018-12-22T22:00:08.565Z,10.83
2018-12-22T22:02:34.808Z,5.25
2018-12-22T22:05:01.161Z,6.30
2018-12-22T22:07:27.359Z,3.63
2018-12-22T22:09:53.501Z,3.33
2018-12-22T22:12:19.750Z,6.10
2018-12-22T22:14:46.065Z,5.00
2018-12-22T22:17:12.385Z,6.03
2018-12-22T22:19:38.666Z,5.53
2018-12-22T22:22:05.012Z,3.20
2018-12-22T22:24:31.125Z,4.28
2018-12-22T22:26:57.501Z,4.90
2018-12-22T22:29:23.734Z,4.57
2018-12-22T22:31:49.872Z,3.80
2018-12-22T22:34:15.967Z,3.08
2018-12-22T22:36:42.136Z,3.60
2018-12-22T22:39:08.241Z,5.43
2018-12-22T22:41:34.365Z,4.62
2018-12-22T22:44:00.597Z,4.27
2018-12-22T22:46:26.925Z,4.53
2018-12-22T22:48:53.065Z,3.35
2018-12-22T22:51:19.398Z,4.47
2018-12-22T22:53:45.525Z,5.05
2018-12-22T22:56:11.802Z,2.87
2018-12-22T22:58:38.045Z,3.40
2018-12-22T23:01:04.609Z,2.90
2018-12-22T23:03:30.833Z,6.70
2018-12-22T23:05:57.080Z,3.83
2018-12-22T23:08:23.367Z,3.10
2018-12-22T23:10:49.832Z,2.10
2018-12-22T23:13:16.029Z,2.97
2018-12-22T23:15:42.634Z,2.87
2018-12-22T23:18:08.764Z,8.43
2018-12-22T23:20:34.935Z,3.20
2018-12-22T23:23:01.117Z,2.03
2018-12-22T23:25:27.453Z,7.22
2018-12-22T23:27:53.638Z,3.97
2018-12-22T23:30:19.858Z,2.80
2018-12-22T23:32:45.979Z,3.83
2018-12-22T23:35:12.213Z,6.43
2018-12-22T23:37:38.357Z,1.70
2018-12-22T23:40:04.666Z,3.37
2018-12-22T23:42:30.792Z,4.70
2018-12-22T23:44:56.936Z,4.97
2018-12-22T23:47:23.103Z,4.83
2018-12-22T23:49:49.242Z,3.57
2018-12-22T23:52:15.433Z,4.77
2018-12-22T23:54:41.549Z,2.30
2018-12-22T23:57:07.926Z,2.67
2018-12-22T23:59:34.212Z,3.17
